Time;durP1;ratioP1;P1;durP2;ratioP2;P2;SDS_P1;SDS_P2;PMS_P1;PMS_P2;Temp;Humidity;BMP_temperature;BMP_pressure;BME280_temperature;BME280_humidity;BME280_pressure;Samples;Min_cycle;Max_cycle;Signal;HPM_P1;HPM_P2
2021/04/03 00:01:30;;;;;;;22.40;7.15;;;6.80;99.90;;;;;;5052944;28;20412;-61
2021/04/03 00:03:56;;;;;;;25.90;7.97;;;6.70;99.90;;;;;;5052796;28;20021;-61
2021/04/03 00:06:21;;;;;;;21.98;6.93;;;6.70;99.90;;;;;;5051459;28;20024;-61
2021/04/03 00:08:47;;;;;;;28.77;6.93;;;6.70;99.90;;;;;;5052798;28;20035;-61
2021/04/03 00:11:13;;;;;;;27.77;7.18;;;6.70;99.90;;;;;;5052801;28;20029;-61
2021/04/03 00:13:41;;;;;;;27.17;7.72;;;6.70;99.90;;;;;;5052965;28;20032;-61
2021/04/03 00:16:07;;;;;;;25.30;7.45;;;6.70;99.90;;;;;;5052608;28;20466;-61
2021/04/03 00:18:33;;;;;;;25.02;7.53;;;6.70;99.90;;;;;;5052681;28;20017;-61
2021/04/03 00:20:59;;;;;;;20.80;7.07;;;6.80;99.90;;;;;;5051446;28;20032;-61
2021/04/03 00:23:25;;;;;;;21.75;7.25;;;6.80;99.90;;;;;;5052214;28;20103;-61
2021/04/03 00:25:51;;;;;;;22.52;7.85;;;6.90;99.90;;;;;;5052699;28;20060;-61
2021/04/03 00:28:17;;;;;;;26.40;7.22;;;6.90;99.90;;;;;;5052668;28;20028;-61
2021/04/03 00:30:43;;;;;;;21.25;7.55;;;7.00;99.90;;;;;;5051335;28;20029;-61
2021/04/03 00:33:08;;;;;;;24.50;7.60;;;7.00;99.90;;;;;;5052467;28;20025;-61
2021/04/03 00:35:39;;;;;;;21.67;7.07;;;7.10;99.90;;;;;;5052146;28;20021;-61
2021/04/03 00:38:06;;;;;;;23.30;7.53;;;7.00;99.90;;;;;;5052359;28;20244;-61
2021/04/03 00:40:44;;;;;;;23.50;7.68;;;7.00;99.90;;;;;;5052209;28;20063;-61
2021/04/03 00:43:14;;;;;;;18.63;7.20;;;7.00;99.90;;;;;;5050582;28;20060;-61
2021/04/03 00:45:40;;;;;;;21.70;7.65;;;6.90;99.90;;;;;;5052087;28;20432;-61
2021/04/03 00:48:06;;;;;;;23.98;7.13;;;6.90;99.90;;;;;;5052249;28;20547;-61
2021/04/03 00:50:35;;;;;;;25.45;7.72;;;6.80;99.90;;;;;;5050649;28;20128;-61
2021/04/03 00:53:01;;;;;;;26.40;8.38;;;6.80;99.90;;;;;;5051891;28;20044;-61
2021/04/03 00:55:28;;;;;;;22.80;7.60;;;6.80;99.90;;;;;;5050578;28;20025;-61
2021/04/03 00:57:54;;;;;;;27.88;8.25;;;6.70;99.90;;;;;;5052520;28;20454;-61
2021/04/03 01:00:20;;;;;;;24.15;8.20;;;6.70;99.90;;;;;;5050522;28;20123;-61
2021/04/03 01:02:46;;;;;;;25.05;8.05;;;6.70;99.90;;;;;;5052038;28;20112;-61
2021/04/03 01:05:15;;;;;;;27.70;7.30;;;6.70;99.90;;;;;;5051849;28;20056;-61
2021/04/03 01:07:41;;;;;;;24.17;7.32;;;6.70;99.90;;;;;;5051822;28;20492;-61
2021/04/03 01:10:08;;;;;;;26.35;7.63;;;6.80;99.90;;;;;;5051605;28;20100;-61
2021/04/03 01:12:55;;;;;;;24.50;7.82;;;6.90;99.90;;;;;;5051453;28;20060;-61
2021/04/03 01:15:43;;;;;;;23.70;7.97;;;7.00;99.90;;;;;;5051791;28;20013;-61
2021/04/03 01:18:25;;;;;;;28.40;7.68;;;7.00;99.90;;;;;;5051564;28;20017;-61
2021/04/03 01:21:09;;;;;;;20.02;7.07;;;7.10;99.90;;;;;;5051312;28;20024;-61
2021/04/03 01:23:53;;;;;;;22.70;7.32;;;7.00;99.90;;;;;;5050983;28;20463;-61
2021/04/03 01:26:47;;;;;;;22.10;8.25;;;7.00;99.90;;;;;;5051044;28;20563;-61
2021/04/03 01:29:38;;;;;;;30.17;6.50;;;7.10;99.90;;;;;;5050154;28;20033;-61
2021/04/03 01:32:06;;;;;;;23.42;7.40;;;7.20;99.90;;;;;;5040714;28;20037;-61
2021/04/03 01:34:36;;;;;;;25.02;7.38;;;7.20;99.90;;;;;;5050141;28;20047;-61
2021/04/03 01:37:07;;;;;;;28.05;8.43;;;7.20;99.90;;;;;;5051482;28;20021;-61
2021/04/03 01:39:35;;;;;;;26.50;7.18;;;7.20;99.90;;;;;;5051076;28;20108;-61
2021/04/03 01:42:04;;;;;;;27.95;7.43;;;7.30;99.90;;;;;;5051410;28;20017;-60
2021/04/03 01:44:49;;;;;;;27.00;7.13;;;7.30;99.90;;;;;;5050900;28;20108;-60
2021/04/03 01:47:20;;;;;;;28.30;6.93;;;7.30;99.90;;;;;;5051576;28;20021;-60
2021/04/03 01:49:49;;;;;;;21.70;6.25;;;7.20;99.90;;;;;;5050079;28;20083;-60
2021/04/03 01:52:17;;;;;;;25.70;7.50;;;7.20;99.90;;;;;;5049699;28;20112;-60
2021/04/03 01:54:44;;;;;;;27.30;7.38;;;7.20;99.90;;;;;;5050974;28;20136;-61
2021/04/03 01:57:10;;;;;;;24.75;6.82;;;7.20;99.90;;;;;;5051021;28;20021;-61
2021/04/03 01:59:38;;;;;;;23.38;6.15;;;7.20;99.90;;;;;;5051530;28;20067;-62
2021/04/03 02:02:06;;;;;;;25.42;7.32;;;7.30;99.90;;;;;;5051874;28;20111;-61
2021/04/03 02:04:32;;;;;;;21.58;6.63;;;7.30;99.90;;;;;;5051234;28;20025;-61
2021/04/03 02:06:57;;;;;;;23.77;6.80;;;7.20;99.90;;;;;;5049720;28;20070;-61
2021/04/03 02:09:25;;;;;;;24.83;6.78;;;7.20;99.90;;;;;;5051195;28;20122;-61
2021/04/03 02:11:52;;;;;;;32.08;7.45;;;7.20;99.90;;;;;;5051005;28;20033;-61
2021/04/03 02:14:21;;;;;;;26.52;6.47;;;7.20;99.90;;;;;;5049852;28;20025;-61
2021/04/03 02:16:48;;;;;;;25.65;6.65;;;7.20;99.90;;;;;;5051059;28;20033;-61
2021/04/03 02:19:18;;;;;;;30.35;6.68;;;7.20;99.90;;;;;;5049587;28;20056;-61
2021/04/03 02:21:43;;;;;;;21.33;6.05;;;7.10;99.90;;;;;;5050975;28;20032;-61
2021/04/03 02:24:11;;;;;;;29.50;6.15;;;7.10;99.90;;;;;;5050551;28;20381;-61
2021/04/03 02:26:37;;;;;;;25.45;6.55;;;7.20;99.90;;;;;;5050809;28;20025;-61
2021/04/03 02:29:05;;;;;;;23.38;6.20;;;7.20;99.90;;;;;;5050727;28;20028;-61
2021/04/03 02:31:33;;;;;;;21.60;5.80;;;7.20;99.90;;;;;;5050388;28;20028;-61
2021/04/03 02:33:59;;;;;;;25.20;6.20;;;7.20;99.90;;;;;;5050590;28;20021;-61
2021/04/03 02:36:25;;;;;;;23.25;5.90;;;7.20;99.90;;;;;;5050774;28;20036;-61
2021/04/03 02:38:52;;;;;;;22.23;6.63;;;7.20;99.90;;;;;;5051725;28;20390;-61
2021/04/03 02:41:22;;;;;;;22.52;5.90;;;7.20;99.90;;;;;;5053107;28;20029;-61
2021/04/03 02:43:56;;;;;;;24.60;5.80;;;7.20;99.90;;;;;;5054718;28;20029;-61
2021/04/03 02:46:29;;;;;;;27.42;5.93;;;7.30;99.90;;;;;;5054602;28;20500;-61
2021/04/03 02:48:59;;;;;;;26.65;5.85;;;7.30;99.90;;;;;;5054184;28;20029;-61
2021/04/03 02:51:33;;;;;;;21.92;5.57;;;7.20;99.90;;;;;;5054739;28;20383;-61
2021/04/03 02:54:00;;;;;;;23.98;5.28;;;7.20;99.90;;;;;;5054109;28;20033;-61
2021/04/03 02:56:28;;;;;;;18.63;4.82;;;7.30;99.90;;;;;;5054399;28;20115;-61
2021/04/03 02:58:55;;;;;;;21.70;4.60;;;7.20;99.90;;;;;;5054216;28;20039;-61
2021/04/03 03:01:22;;;;;;;21.92;4.75;;;7.10;99.90;;;;;;5054556;28;20414;-61
2021/04/03 03:03:50;;;;;;;25.73;4.78;;;7.10;99.90;;;;;;5054189;28;20017;-61
2021/04/03 03:06:20;;;;;;;21.52;3.63;;;7.10;99.90;;;;;;5054085;28;20442;-61
2021/04/03 03:08:47;;;;;;;14.27;3.63;;;7.10;99.90;;;;;;5054025;28;20029;-61
2021/04/03 03:11:16;;;;;;;22.02;4.70;;;7.10;99.90;;;;;;5053614;28;20112;-61
2021/04/03 03:13:43;;;;;;;14.70;3.72;;;7.10;99.90;;;;;;5052391;28;20404;-61
2021/04/03 03:16:12;;;;;;;18.23;4.35;;;7.10;99.90;;;;;;5053813;28;20017;-61
2021/04/03 03:18:40;;;;;;;22.42;3.97;;;7.10;99.90;;;;;;5052886;28;20469;-61
2021/04/03 03:21:07;;;;;;;21.13;4.25;;;7.00;99.90;;;;;;5052762;28;20025;-61
2021/04/03 03:23:33;;;;;;;25.77;4.28;;;7.00;99.90;;;;;;5053479;28;20428;-61
2021/04/03 03:25:59;;;;;;;21.85;3.97;;;7.10;99.90;;;;;;5052396;28;20524;-61
2021/04/03 03:28:26;;;;;;;20.83;4.45;;;7.10;99.90;;;;;;5053761;28;20060;-61
2021/04/03 03:30:53;;;;;;;25.35;3.95;;;7.10;99.90;;;;;;5052296;28;20025;-61
2021/04/03 03:33:18;;;;;;;18.02;3.38;;;7.10;99.90;;;;;;5053635;28;20062;-61
2021/04/03 03:35:44;;;;;;;24.60;4.13;;;7.10;99.90;;;;;;5052279;28;20482;-61
2021/04/03 03:38:11;;;;;;;20.27;3.95;;;7.10;99.90;;;;;;5052801;28;20052;-61
2021/04/03 03:40:37;;;;;;;16.15;3.97;;;7.10;99.90;;;;;;5054117;28;20423;-61
2021/04/03 03:43:03;;;;;;;20.27;3.40;;;7.10;99.90;;;;;;5052429;28;20036;-61
2021/04/03 03:45:29;;;;;;;20.58;3.78;;;7.10;99.90;;;;;;5053231;28;20033;-61
2021/04/03 03:47:55;;;;;;;19.75;3.80;;;7.00;99.90;;;;;;5053286;28;20416;-61
2021/04/03 03:50:20;;;;;;;16.25;3.92;;;7.00;99.90;;;;;;5052555;28;20049;-61
2021/04/03 03:52:46;;;;;;;16.77;3.78;;;7.00;99.90;;;;;;5053121;28;20025;-60
2021/04/03 03:55:12;;;;;;;17.38;4.32;;;7.00;99.90;;;;;;5051922;28;20051;-60
2021/04/03 03:57:38;;;;;;;21.55;4.63;;;7.10;99.90;;;;;;5052168;28;20088;-60
2021/04/03 04:00:06;;;;;;;15.60;4.50;;;7.10;99.90;;;;;;5053489;28;20466;-60
2021/04/03 04:02:31;;;;;;;17.60;4.25;;;7.10;99.90;;;;;;5052097;28;20029;-61
2021/04/03 04:04:57;;;;;;;20.48;5.18;;;7.10;99.90;;;;;;5053293;28;20021;-61
2021/04/03 04:07:23;;;;;;;21.30;5.30;;;7.20;99.90;;;;;;5053502;28;20059;-60
2021/04/03 04:09:48;;;;;;;23.95;5.40;;;7.20;99.90;;;;;;5051202;28;20392;-60
2021/04/03 04:12:14;;;;;;;19.20;5.28;;;7.10;99.90;;;;;;5052972;28;20091;-60
2021/04/03 04:14:40;;;;;;;19.80;5.50;;;7.10;99.90;;;;;;5053185;28;20021;-61
2021/04/03 04:17:05;;;;;;;20.67;4.90;;;7.20;99.90;;;;;;5052946;28;20025;-61
2021/04/03 04:19:31;;;;;;;20.27;5.32;;;7.20;99.90;;;;;;5052678;28;20386;-61
2021/04/03 04:22:00;;;;;;;18.08;5.07;;;7.10;99.90;;;;;;5051202;28;20060;-61
2021/04/03 04:24:25;;;;;;;14.75;5.00;;;7.10;99.90;;;;;;5051361;28;20191;-61
2021/04/03 04:26:52;;;;;;;24.67;5.30;;;7.10;99.90;;;;;;5051321;28;20123;-61
2021/04/03 04:29:18;;;;;;;18.20;5.05;;;7.20;99.90;;;;;;5052580;28;20064;-61
2021/04/03 04:31:43;;;;;;;22.35;4.82;;;7.20;99.90;;;;;;5052384;28;20481;-61
2021/04/03 04:34:09;;;;;;;27.30;5.63;;;7.10;99.90;;;;;;5052534;28;20044;-61
2021/04/03 04:36:34;;;;;;;30.83;5.70;;;7.10;99.90;;;;;;5052631;28;20021;-61
2021/04/03 04:39:00;;;;;;;24.02;5.20;;;7.10;99.90;;;;;;5052348;28;20465;-61
2021/04/03 04:41:26;;;;;;;20.67;4.88;;;7.10;99.90;;;;;;5051326;28;20043;-61
2021/04/03 04:43:52;;;;;;;20.42;4.60;;;7.10;99.90;;;;;;5052183;28;20025;-61
2021/04/03 04:46:17;;;;;;;21.08;5.55;;;7.10;99.90;;;;;;5052680;28;20029;-61
2021/04/03 04:48:43;;;;;;;21.25;5.88;;;7.10;99.90;;;;;;5051542;28;20125;-61
2021/04/03 04:51:09;;;;;;;21.17;4.97;;;7.20;99.90;;;;;;5051801;28;20037;-61
2021/04/03 04:53:34;;;;;;;34.80;5.32;;;7.20;99.90;;;;;;5050607;28;20029;-61
2021/04/03 04:56:00;;;;;;;26.10;6.10;;;7.10;99.90;;;;;;5052146;28;20378;-61
2021/04/03 04:58:26;;;;;;;26.17;5.78;;;7.10;99.90;;;;;;5052103;28;20031;-60
2021/04/03 05:00:51;;;;;;;23.25;5.72;;;7.10;99.90;;;;;;5051244;28;20037;-60
2021/04/03 05:03:17;;;;;;;27.58;6.43;;;7.20;99.90;;;;;;5051225;28;20100;-60
2021/04/03 05:05:43;;;;;;;27.90;7.00;;;7.20;99.90;;;;;;5051514;28;20043;-60
2021/04/03 05:08:08;;;;;;;25.92;7.20;;;7.20;99.90;;;;;;5051840;28;20115;-60
2021/04/03 05:10:34;;;;;;;26.67;6.28;;;7.10;99.90;;;;;;5052594;28;20037;-60
2021/04/03 05:13:01;;;;;;;25.98;6.40;;;7.10;99.90;;;;;;5052020;28;20437;-60
2021/04/03 05:15:27;;;;;;;30.13;5.88;;;7.10;99.90;;;;;;5050444;28;20032;-60
2021/04/03 05:17:52;;;;;;;18.48;5.32;;;7.20;99.90;;;;;;5051903;28;20029;-60
2021/04/03 05:20:18;;;;;;;24.63;5.90;;;7.10;99.90;;;;;;5051714;28;20029;-60
2021/04/03 05:22:44;;;;;;;28.70;6.55;;;7.10;99.90;;;;;;5050435;28;20489;-61
2021/04/03 05:25:12;;;;;;;24.25;6.32;;;7.20;99.90;;;;;;5051466;28;20025;-61
2021/04/03 05:27:38;;;;;;;30.60;6.93;;;7.20;99.90;;;;;;5050275;28;20029;-61
2021/04/03 05:30:04;;;;;;;28.58;6.10;;;7.20;99.90;;;;;;5051340;28;20370;-61
2021/04/03 05:32:30;;;;;;;24.63;5.53;;;7.20;99.90;;;;;;5051697;28;20020;-61
2021/04/03 05:34:55;;;;;;;25.05;5.72;;;7.30;99.90;;;;;;5051617;28;20070;-61
2021/04/03 05:37:21;;;;;;;24.63;5.75;;;7.30;99.90;;;;;;5050347;28;20465;-61
2021/04/03 05:39:46;;;;;;;31.55;6.38;;;7.30;99.90;;;;;;5049735;28;20115;-61
2021/04/03 05:42:15;;;;;;;31.85;5.85;;;7.30;99.90;;;;;;5051482;28;20040;-61
2021/04/03 05:44:42;;;;;;;23.15;5.82;;;7.20;99.90;;;;;;5051539;28;20068;-61
2021/04/03 05:47:09;;;;;;;26.98;5.32;;;7.20;99.90;;;;;;5051381;28;20021;-61
2021/04/03 05:49:35;;;;;;;30.75;5.93;;;7.20;99.90;;;;;;5050813;28;20124;-61
2021/04/03 05:52:03;;;;;;;37.25;6.13;;;7.20;99.90;;;;;;5050708;28;20048;-61
2021/04/03 05:54:30;;;;;;;27.88;6.43;;;7.20;99.90;;;;;;5049899;28;20032;-61
2021/04/03 05:56:56;;;;;;;35.97;5.97;;;7.20;99.90;;;;;;5049780;28;20064;-61
2021/04/03 05:59:21;;;;;;;24.85;5.43;;;7.20;99.90;;;;;;5051188;28;20048;-61
2021/04/03 06:01:47;;;;;;;28.13;6.60;;;7.20;99.90;;;;;;5050998;28;20438;-61
2021/04/03 06:04:15;;;;;;;29.38;5.60;;;7.30;99.90;;;;;;5049583;28;20021;-61
2021/04/03 06:06:41;;;;;;;25.75;5.85;;;7.30;99.90;;;;;;5051172;28;20059;-61
2021/04/03 06:09:07;;;;;;;29.70;6.18;;;7.30;99.90;;;;;;5050878;28;20493;-61
2021/04/03 06:11:46;;;;;;;28.02;6.88;;;7.30;99.90;;;;;;5050684;28;20135;-61
2021/04/03 06:14:12;;;;;;;23.15;5.40;;;7.40;99.90;;;;;;5054120;28;20366;-61
2021/04/03 06:16:43;;;;;;;25.15;5.35;;;7.40;99.90;;;;;;5055007;28;20029;-61
2021/04/03 06:19:14;;;;;;;25.52;5.20;;;7.50;99.90;;;;;;5055107;28;20359;-61
2021/04/03 06:21:45;;;;;;;22.85;5.22;;;7.60;99.90;;;;;;5053816;28;20063;-62
2021/04/03 06:24:22;;;;;;;22.90;4.95;;;7.60;99.90;;;;;;5054761;28;20025;-61
2021/04/03 06:27:20;;;;;;;22.10;5.13;;;7.50;99.90;;;;;;5054818;28;20045;-61
2021/04/03 06:29:50;;;;;;;25.27;5.30;;;7.60;99.90;;;;;;5042617;28;20048;-61
2021/04/03 06:32:28;;;;;;;23.27;5.03;;;7.50;99.90;;;;;;5054667;28;20024;-61
2021/04/03 06:34:54;;;;;;;27.48;5.72;;;7.70;99.90;;;;;;5054965;28;20019;-61
2021/04/03 06:37:31;;;;;;;22.95;5.90;;;7.60;99.90;;;;;;5053448;28;20075;-61
2021/04/03 06:40:05;;;;;;;25.45;5.43;;;7.70;99.90;;;;;;5054744;28;20427;-60
2021/04/03 06:42:39;;;;;;;22.60;4.60;;;7.60;99.90;;;;;;5054329;28;20380;-61
2021/04/03 06:45:18;;;;;;;24.33;4.65;;;7.70;99.90;;;;;;5054803;28;20557;-61
2021/04/03 06:47:45;;;;;;;24.90;5.43;;;7.70;99.90;;;;;;5054791;28;20017;-61
2021/04/03 06:50:13;;;;;;;23.58;4.38;;;7.70;99.90;;;;;;5053085;28;20061;-61
2021/04/03 06:52:39;;;;;;;22.52;4.13;;;7.80;99.90;;;;;;5054496;28;20021;-61
2021/04/03 06:55:06;;;;;;;23.27;4.07;;;7.80;99.90;;;;;;5053327;28;20044;-62
2021/04/03 06:57:35;;;;;;;26.83;4.55;;;7.90;99.90;;;;;;5053456;28;20025;-62
2021/04/03 07:00:02;;;;;;;19.23;4.20;;;8.00;99.90;;;;;;5052948;28;20059;-61
2021/04/03 07:02:30;;;;;;;20.08;4.68;;;8.00;99.90;;;;;;5052755;28;20563;-61
2021/04/03 07:04:57;;;;;;;28.00;4.65;;;7.90;99.90;;;;;;5052765;28;20033;-61
2021/04/03 07:07:28;;;;;;;25.10;4.82;;;7.90;99.90;;;;;;5052886;28;20025;-61
2021/04/03 07:09:55;;;;;;;23.45;4.20;;;8.00;99.90;;;;;;5054226;28;20041;-61
2021/04/03 07:12:22;;;;;;;24.25;4.53;;;8.00;99.90;;;;;;5053221;28;20445;-61
2021/04/03 07:14:49;;;;;;;20.63;3.80;;;8.00;99.90;;;;;;5052779;28;20036;-61
2021/04/03 07:17:16;;;;;;;16.27;3.90;;;8.00;99.40;;;;;;5054410;28;20386;-61
2021/04/03 07:19:46;;;;;;;15.95;3.88;;;8.00;99.40;;;;;;5052657;28;20036;-61
2021/04/03 07:22:13;;;;;;;17.35;4.13;;;8.10;99.30;;;;;;5052490;28;20029;-61
2021/04/03 07:24:39;;;;;;;17.58;4.30;;;8.10;99.40;;;;;;5051826;28;20037;-61
2021/04/03 07:27:06;;;;;;;18.50;4.07;;;8.20;99.10;;;;;;5054669;28;20470;-61
2021/04/03 07:29:45;;;;;;;27.42;4.57;;;8.30;99.20;;;;;;5053801;28;20027;-61
2021/04/03 07:32:32;;;;;;;24.45;4.28;;;8.30;99.10;;;;;;5053763;28;20025;-61
2021/04/03 07:34:58;;;;;;;21.65;4.70;;;8.20;98.90;;;;;;5053985;28;20393;-62
2021/04/03 07:37:36;;;;;;;23.88;4.65;;;8.20;99.20;;;;;;5052969;28;20022;-59
2021/04/03 07:40:03;;;;;;;25.60;4.45;;;8.20;99.40;;;;;;5052254;28;20032;-61
2021/04/03 07:42:37;;;;;;;18.33;4.25;;;8.30;99.40;;;;;;5052310;28;20025;-61
2021/04/03 07:45:26;;;;;;;19.33;4.35;;;8.40;99.30;;;;;;5053226;28;20486;-61
2021/04/03 07:47:52;;;;;;;23.30;4.93;;;8.50;99.20;;;;;;5053414;28;20029;-61
2021/04/03 07:50:40;;;;;;;22.17;4.93;;;8.40;98.90;;;;;;5053121;28;20045;-61
2021/04/03 07:53:06;;;;;;;28.90;5.90;;;8.50;98.90;;;;;;5053000;28;20118;-60
2021/04/03 07:55:41;;;;;;;23.40;5.20;;;8.50;99.20;;;;;;5053179;28;20096;-60
2021/04/03 07:58:19;;;;;;;25.05;4.78;;;8.60;98.90;;;;;;5053577;28;20017;-61
2021/04/03 08:00:48;;;;;;;27.75;5.15;;;8.60;99.10;;;;;;5053672;28;20059;-61
2021/04/03 08:03:24;;;;;;;17.92;4.32;;;8.70;99.10;;;;;;5053451;28;20040;-61
2021/04/03 08:06:07;;;;;;;18.75;4.57;;;8.70;99.00;;;;;;5053111;28;20025;-61
2021/04/03 08:08:34;;;;;;;22.48;3.88;;;8.70;99.10;;;;;;5053232;28;20059;-60
2021/04/03 08:11:16;;;;;;;24.27;4.63;;;8.60;98.80;;;;;;5051662;28;20033;-60
2021/04/03 08:13:47;;;;;;;30.83;5.53;;;8.60;99.00;;;;;;5052759;28;20046;-60
2021/04/03 08:16:14;;;;;;;23.65;5.55;;;8.70;99.00;;;;;;5054248;28;20021;-61
2021/04/03 08:18:43;;;;;;;21.40;4.25;;;8.70;99.00;;;;;;5052743;28;20140;-61
2021/04/03 08:21:09;;;;;;;20.98;4.30;;;8.70;99.10;;;;;;5053264;28;20448;-60
2021/04/03 08:23:50;;;;;;;24.58;4.45;;;8.60;99.10;;;;;;5051344;28;20029;-61
2021/04/03 08:26:17;;;;;;;21.40;4.13;;;8.70;99.80;;;;;;5052865;28;20025;-60
2021/04/03 08:28:43;;;;;;;24.38;4.90;;;8.80;99.30;;;;;;5051257;28;20032;-60
2021/04/03 08:31:16;;;;;;;16.75;3.58;;;8.80;98.60;;;;;;5052622;28;20036;-60
2021/04/03 08:33:44;;;;;;;18.45;3.92;;;8.90;98.60;;;;;;5051152;28;20420;-60
2021/04/03 08:36:12;;;;;;;26.55;4.28;;;8.80;98.30;;;;;;5052624;28;20025;-60
2021/04/03 08:38:38;;;;;;;27.63;5.50;;;8.80;98.50;;;;;;5052763;28;20021;-61
2021/04/03 08:41:04;;;;;;;35.03;5.75;;;9.00;98.60;;;;;;5052537;28;20590;-60
2021/04/03 08:43:31;;;;;;;17.02;3.28;;;8.90;98.30;;;;;;5052910;28;20244;-61
2021/04/03 08:46:06;;;;;;;24.55;4.13;;;8.90;98.10;;;;;;5052628;28;20021;-61
2021/04/03 08:48:37;;;;;;;23.05;4.43;;;8.90;98.20;;;;;;5053393;28;20402;-61
2021/04/03 08:51:04;;;;;;;17.90;4.15;;;9.00;98.20;;;;;;5052132;28;20041;-61
2021/04/03 08:53:38;;;;;;;22.20;3.90;;;9.20;97.90;;;;;;5050572;28;20071;-61
2021/04/03 08:56:04;;;;;;;15.82;3.55;;;9.10;97.60;;;;;;5052229;28;20056;-61
2021/04/03 08:58:30;;;;;;;23.42;4.10;;;9.20;97.80;;;;;;5052122;28;20078;-61
2021/04/03 09:00:56;;;;;;;20.23;4.35;;;9.20;97.60;;;;;;5052328;28;20041;-61
2021/04/03 09:03:22;;;;;;;19.67;4.20;;;9.30;97.50;;;;;;5052314;28;20105;-61
2021/04/03 09:05:51;;;;;;;21.50;4.35;;;9.30;97.30;;;;;;5050744;28;20029;-61
2021/04/03 09:08:21;;;;;;;24.35;3.95;;;9.40;97.00;;;;;;5051804;28;20442;-61
2021/04/03 09:10:53;;;;;;;26.15;5.00;;;9.30;96.70;;;;;;5058900;28;20507;-61
2021/04/03 09:13:18;;;;;;;20.58;4.60;;;9.20;97.00;;;;;;5054689;28;20029;-61
2021/04/03 09:15:47;;;;;;;23.70;3.83;;;9.30;97.00;;;;;;5050463;28;20021;-61
2021/04/03 09:18:13;;;;;;;20.17;4.32;;;9.30;97.20;;;;;;5051800;28;20041;-61
2021/04/03 09:20:47;;;;;;;20.48;3.88;;;9.40;97.20;;;;;;5051705;28;20482;-61
2021/04/03 09:23:12;;;;;;;22.25;4.22;;;9.50;96.80;;;;;;5051151;28;20509;-61
2021/04/03 09:25:38;;;;;;;27.73;4.93;;;9.30;97.20;;;;;;5051490;28;20052;-61
2021/04/03 09:28:14;;;;;;;25.92;4.68;;;9.40;97.10;;;;;;5050343;28;20033;-61
2021/04/03 09:30:44;;;;;;;25.70;4.90;;;9.30;97.00;;;;;;5051531;28;20047;-61
2021/04/03 09:33:22;;;;;;;24.27;4.95;;;9.20;97.30;;;;;;5051936;28;20482;-61
2021/04/03 09:35:49;;;;;;;20.42;4.68;;;9.40;97.50;;;;;;5051741;28;20021;-61
2021/04/03 09:38:26;;;;;;;29.98;5.75;;;9.50;97.20;;;;;;5059449;28;20029;-61
2021/04/03 09:40:52;;;;;;;23.45;5.57;;;9.60;97.30;;;;;;5071891;28;20025;-61
2021/04/03 09:43:17;;;;;;;28.60;4.88;;;9.70;96.30;;;;;;5070380;28;20040;-61
2021/04/03 09:45:43;;;;;;;24.92;5.03;;;9.60;96.50;;;;;;5070751;28;20062;-61
2021/04/03 09:48:10;;;;;;;26.27;4.50;;;9.80;96.10;;;;;;5059902;28;20071;-61
2021/04/03 09:50:37;;;;;;;20.98;5.60;;;9.70;96.20;;;;;;5049905;28;20041;-61
2021/04/03 09:53:11;;;;;;;24.33;5.28;;;9.90;96.40;;;;;;5068200;28;20040;-61
2021/04/03 09:55:38;;;;;;;20.15;4.68;;;10.00;96.00;;;;;;5071649;28;20477;-61
2021/04/03 09:58:04;;;;;;;17.73;4.50;;;10.00;95.80;;;;;;5071846;28;20031;-61
2021/04/03 10:00:30;;;;;;;23.15;4.80;;;10.00;95.60;;;;;;5070012;28;20037;-61
2021/04/03 10:02:55;;;;;;;20.70;3.90;;;10.00;95.90;;;;;;5071825;28;20364;-61
2021/04/03 10:05:21;;;;;;;21.10;4.88;;;10.10;96.10;;;;;;5071230;28;20029;-61
2021/04/03 10:07:47;;;;;;;22.17;4.47;;;10.30;96.10;;;;;;5058010;28;20029;-61
2021/04/03 10:10:13;;;;;;;24.65;5.40;;;10.20;96.30;;;;;;5050905;28;20390;-61
2021/04/03 10:12:39;;;;;;;21.30;4.90;;;10.40;96.20;;;;;;5050943;28;20504;-61
2021/04/03 10:15:05;;;;;;;22.48;5.28;;;10.30;95.80;;;;;;5050113;28;20104;-61
2021/04/03 10:17:31;;;;;;;21.30;4.70;;;10.30;95.50;;;;;;5051347;28;20029;-61
2021/04/03 10:19:57;;;;;;;23.40;4.82;;;10.30;95.70;;;;;;5052897;28;20335;-61
2021/04/03 10:22:22;;;;;;;26.75;8.60;;;10.20;95.90;;;;;;5054252;28;20397;-61
2021/04/03 10:24:48;;;;;;;23.42;6.07;;;10.30;96.20;;;;;;5056263;28;20108;-61
2021/04/03 10:27:13;;;;;;;24.33;5.47;;;10.60;95.20;;;;;;5052555;28;20040;-61
2021/04/03 10:29:39;;;;;;;28.70;6.30;;;10.70;94.60;;;;;;5051633;28;20037;-61
2021/04/03 10:32:05;;;;;;;19.88;5.00;;;10.80;94.60;;;;;;5050400;28;20545;-61
2021/04/03 10:34:31;;;;;;;23.83;5.93;;;11.10;94.80;;;;;;5050073;28;20052;-61
2021/04/03 10:36:56;;;;;;;21.90;5.57;;;11.10;94.10;;;;;;5050145;28;20049;-61
2021/04/03 10:39:22;;;;;;;24.17;5.72;;;11.10;93.90;;;;;;5050315;28;20017;-61
2021/04/03 10:41:48;;;;;;;26.83;5.05;;;10.90;94.10;;;;;;5050296;28;20055;-61
2021/04/03 10:44:13;;;;;;;26.13;5.90;;;11.00;94.50;;;;;;5050584;28;20100;-61
2021/04/03 10:46:39;;;;;;;22.23;4.95;;;11.20;93.60;;;;;;5050986;28;20033;-61
2021/04/03 10:49:04;;;;;;;16.63;4.85;;;11.30;93.60;;;;;;5050576;28;20143;-61
2021/04/03 10:51:30;;;;;;;19.23;4.93;;;11.90;92.80;;;;;;5050646;28;20079;-61
2021/04/03 10:53:56;;;;;;;20.60;5.32;;;12.50;91.80;;;;;;5050252;28;20270;-61
2021/04/03 10:56:21;;;;;;;19.30;5.20;;;13.40;90.20;;;;;;5050118;28;20025;-61
2021/04/03 10:58:47;;;;;;;16.45;4.78;;;13.70;88.60;;;;;;5050163;28;20021;-61
2021/04/03 11:01:13;;;;;;;18.65;5.75;;;13.30;86.80;;;;;;5053368;28;20408;-61
2021/04/03 11:03:39;;;;;;;18.08;6.10;;;12.30;87.80;;;;;;5052680;28;20028;-60
2021/04/03 11:06:05;;;;;;;17.50;5.57;;;12.30;89.20;;;;;;5052646;28;20067;-60
2021/04/03 11:08:30;;;;;;;16.90;4.68;;;13.50;87.40;;;;;;5053673;28;20063;-60
2021/04/03 11:10:57;;;;;;;17.20;5.13;;;14.50;82.40;;;;;;5053553;28;20029;-60
2021/04/03 11:13:22;;;;;;;18.40;5.30;;;15.00;82.00;;;;;;5052344;28;20031;-60
2021/04/03 11:15:48;;;;;;;22.25;5.13;;;15.50;77.10;;;;;;5052177;28;20412;-60
2021/04/03 11:18:14;;;;;;;18.27;4.60;;;15.30;75.20;;;;;;5053579;28;20025;-60
2021/04/03 11:20:40;;;;;;;14.95;5.38;;;14.80;74.40;;;;;;5052018;28;20033;-60
2021/04/03 11:23:06;;;;;;;18.48;4.75;;;13.30;78.20;;;;;;5053627;28;20032;-60
2021/04/03 11:25:33;;;;;;;15.18;4.80;;;13.30;79.20;;;;;;5053701;28;20539;-60
2021/04/03 11:27:59;;;;;;;14.25;4.60;;;13.30;78.80;;;;;;5053778;28;20029;-60
2021/04/03 11:30:25;;;;;;;18.23;4.28;;;14.10;78.60;;;;;;5053150;28;20497;-60
2021/04/03 11:32:50;;;;;;;14.73;4.03;;;15.40;73.20;;;;;;5053273;28;20021;-60
2021/04/03 11:35:18;;;;;;;17.80;4.75;;;15.80;69.40;;;;;;5053142;28;20100;-60
2021/04/03 11:37:45;;;;;;;19.52;4.90;;;15.40;70.40;;;;;;5051871;28;20071;-60
2021/04/03 11:40:12;;;;;;;14.40;4.70;;;14.60;71.80;;;;;;5053005;28;20525;-60
2021/04/03 11:42:37;;;;;;;11.18;4.38;;;14.50;72.50;;;;;;5053128;28;20028;-60
2021/04/03 11:45:06;;;;;;;15.48;4.50;;;15.00;72.20;;;;;;5051544;28;20029;-60
2021/04/03 11:47:31;;;;;;;15.05;4.85;;;15.30;68.50;;;;;;5052931;28;20422;-60
2021/04/03 11:49:58;;;;;;;14.15;4.75;;;15.00;69.60;;;;;;5053218;28;20132;-60
2021/04/03 11:52:25;;;;;;;20.30;4.72;;;13.80;70.80;;;;;;5053290;28;20025;-60
2021/04/03 11:54:51;;;;;;;15.65;4.43;;;13.50;73.10;;;;;;5053415;28;20021;-60
2021/04/03 11:57:17;;;;;;;11.90;4.40;;;13.70;71.30;;;;;;5051848;28;20025;-60
2021/04/03 11:59:45;;;;;;;13.23;4.63;;;13.60;72.60;;;;;;5053488;28;20021;-60
2021/04/03 12:02:10;;;;;;;20.00;5.32;;;13.20;73.30;;;;;;5057409;28;20028;-60
2021/04/03 12:04:36;;;;;;;12.80;4.10;;;13.40;74.50;;;;;;5059148;28;20028;-60
2021/04/03 12:07:02;;;;;;;17.80;4.18;;;14.50;74.70;;;;;;5064902;28;20024;-60
2021/04/03 12:09:27;;;;;;;19.27;4.15;;;15.60;69.60;;;;;;5067650;28;20509;-60
2021/04/03 12:11:53;;;;;;;19.15;4.68;;;15.10;69.60;;;;;;5050705;28;20116;-60
2021/04/03 12:14:19;;;;;;;17.08;4.82;;;14.50;71.30;;;;;;5052547;28;20025;-60
2021/04/03 12:16:44;;;;;;;17.70;5.00;;;14.10;71.50;;;;;;5052550;28;20021;-60
2021/04/03 12:19:10;;;;;;;15.95;5.00;;;13.80;71.80;;;;;;5053005;28;20032;-60
2021/04/03 12:21:35;;;;;;;14.32;4.45;;;13.90;72.80;;;;;;5051626;28;20059;-60
2021/04/03 12:24:01;;;;;;;15.82;4.75;;;14.00;72.50;;;;;;5052361;28;20036;-61
2021/04/03 12:26:27;;;;;;;13.52;4.80;;;13.60;73.20;;;;;;5052892;28;20029;-61
2021/04/03 12:28:52;;;;;;;18.38;4.93;;;13.80;73.80;;;;;;5051009;28;20258;-61
2021/04/03 12:31:18;;;;;;;18.98;5.00;;;14.40;72.20;;;;;;5052483;28;20478;-60
2021/04/03 12:33:44;;;;;;;21.27;5.10;;;14.90;70.30;;;;;;5051239;28;20060;-60
2021/04/03 12:36:09;;;;;;;14.65;4.72;;;14.10;71.50;;;;;;5052392;28;20033;-60
2021/04/03 12:38:36;;;;;;;18.52;4.82;;;14.70;70.70;;;;;;5052318;28;20021;-60
2021/04/03 12:41:02;;;;;;;19.02;4.38;;;15.70;67.10;;;;;;5055632;28;20111;-60
2021/04/03 12:43:28;;;;;;;16.40;4.57;;;16.00;66.60;;;;;;5071897;28;20051;-61
2021/04/03 12:45:54;;;;;;;17.95;4.85;;;15.90;64.90;;;;;;5071765;28;20493;-61
2021/04/03 12:48:20;;;;;;;12.35;4.25;;;15.00;66.20;;;;;;5070689;28;20090;-61
2021/04/03 12:50:48;;;;;;;17.55;5.43;;;14.70;68.00;;;;;;5072633;28;20045;-61